CheckWX is a tool to help pilots better visualize weather data.  It is not intended as a substitute for an official pre-flight weather briefing.

07:28:45 UTC

EDVE TAF
Braunschweig Wolfsburg Airport
Germany
TAF EDVE 200500Z 2006/2015 25006KT CAVOK

Aug-20@
06:00 UTC

Aug-20 @ 06:00 UTC

Aug-20@
15:00 UTC

Aug-20 @ 15:00 UTC

TAF EDVE 200500Z 2006/2015 25006KT CAVOK
Wind
  • 250° at 6 KTS
Conditions
No significant weather
Cloud Levels
  • No significant clouds